Frostproof, FL

10:34 AM EST on December 27, 2014 (GMT -0500)
APRSWXNET Frostproof FL US | Change Station
CLOSE
Current Station
Personal Weather Station
Location: Frostproof, FL
Elevation: 134 ft
Nearby Weather Stations

Elev 134 ft 27.76 °N, 81.57 °W | Updated 33 minutes ago

Rain
Rain
71.0 °F
Feels Like 66 °F
N
3.0
Wind Variable Wind from North
Gusts 6.0 mph

Today
High -- | Low -- °F
--% Chance of Precip.
Yesterday
High -- | Low -- °F
Precip. -- in
7:15 AM 5:39 PM
Waxing Crescent, 37% visible
Pressure 30.29 in
Visibility 10.0 miles
Clouds Scattered Clouds 1800 ft
Mostly Cloudy 20000 ft
Heat Index 66 °F
Dew Point 69.0 °F
Humidity 95%
Rainfall -999.00 in
Snow Depth Not available.
UV 2 out of 12
Pollen 7.80 out of 12
Air Quality Not available.
Flu Activity Not available.
METAR KBOW 271447Z VRB04KT 10SM SCT018 BKN200 19/16 A3029

More Conditions Fewer Conditions

Pressure 30.29 in
Visibility 10.0 miles
Clouds Scattered Clouds 1800 ft
Mostly Cloudy 20000 ft
Heat Index 66 °F
Dew Point 69.0 °F
Humidity 95%
Rainfall -999.00 in
Snow Depth Not available.
UV 2 out of 12
Pollen 7.80 out of 12
Air Quality Not available.
Flu Activity Not available.
METAR KBOW 271447Z VRB04KT 10SM SCT018 BKN200 19/16 A3029

More Conditions Fewer Conditions

10-Day Weather Forecast

Almanac

Astronomy

Dec. 27, 2014 Rise Set
Actual Time
Civil Twilight
Nautical Twilight
Astronomical Twilight
Moon
Length of Visible Light
Length of Day
Tomorrow will be .
, % of the Moon is Illuminated

Today's Extremes

State Highs State Lows

Community

WunderPhotos

Upload Photos

1,780,933 photos uploaded!

WunderBlogs® & News

Nearby

Air Quality

  Air Quality AQ Index Pollutant
Not available.

Snow Depth

Station Depth Elevation

Earthquake Activity

City Distance Mag. Time & Date
Minimum magnitude displayed is 2.5.

Coastal Water Temperatures

Place Temperature

Nearby Weather Stations